sensor_id;sensor_type;location;lat;lon;timestamp;temperature;humidity
49148;DHT22;41980;45.550;12.070;2022-08-19T00:04:34;21.50;78.80
49148;DHT22;41980;45.550;12.070;2022-08-19T00:10:37;21.50;78.80
49148;DHT22;41980;45.550;12.070;2022-08-19T00:16:41;21.50;79.30
49148;DHT22;41980;45.550;12.070;2022-08-19T00:22:44;21.40;79.10
49148;DHT22;41980;45.550;12.070;2022-08-19T00:28:46;21.30;79.90
49148;DHT22;41980;45.550;12.070;2022-08-19T00:34:48;21.20;80.20
49148;DHT22;41980;45.550;12.070;2022-08-19T00:40:51;21.10;80.60
49148;DHT22;41980;45.550;12.070;2022-08-19T00:46:58;21.10;80.40
49148;DHT22;41980;45.550;12.070;2022-08-19T00:53:00;21.20;79.70
49148;DHT22;41980;45.550;12.070;2022-08-19T00:59:06;21.20;79.70
49148;DHT22;41980;45.550;12.070;2022-08-19T01:05:17;21.20;79.30
49148;DHT22;41980;45.550;12.070;2022-08-19T01:11:21;21.20;79.80
49148;DHT22;41980;45.550;12.070;2022-08-19T01:17:24;21.10;80.60
49148;DHT22;41980;45.550;12.070;2022-08-19T01:23:26;21.10;81.50
49148;DHT22;41980;45.550;12.070;2022-08-19T01:29:45;21.00;80.70
49148;DHT22;41980;45.550;12.070;2022-08-19T01:35:47;20.90;81.90
49148;DHT22;41980;45.550;12.070;2022-08-19T01:41:53;20.80;82.40
49148;DHT22;41980;45.550;12.070;2022-08-19T01:47:56;20.70;83.00
49148;DHT22;41980;45.550;12.070;2022-08-19T01:53:58;20.70;82.90
49148;DHT22;41980;45.550;12.070;2022-08-19T02:00:01;20.70;83.00
49148;DHT22;41980;45.550;12.070;2022-08-19T02:06:14;20.50;84.00
49148;DHT22;41980;45.550;12.070;2022-08-19T02:12:19;20.40;84.70
49148;DHT22;41980;45.550;12.070;2022-08-19T02:18:25;20.40;84.00
49148;DHT22;41980;45.550;12.070;2022-08-19T02:24:40;20.50;85.20
49148;DHT22;41980;45.550;12.070;2022-08-19T02:31:01;20.50;83.40
49148;DHT22;41980;45.550;12.070;2022-08-19T02:37:16;20.40;84.60
49148;DHT22;41980;45.550;12.070;2022-08-19T02:43:32;20.30;85.20
49148;DHT22;41980;45.550;12.070;2022-08-19T02:49:45;20.20;85.70
49148;DHT22;41980;45.550;12.070;2022-08-19T02:55:48;20.20;87.70
49148;DHT22;41980;45.550;12.070;2022-08-19T03:01:50;20.20;86.20
49148;DHT22;41980;45.550;12.070;2022-08-19T03:07:52;20.30;87.00
49148;DHT22;41980;45.550;12.070;2022-08-19T03:13:56;20.30;86.20
49148;DHT22;41980;45.550;12.070;2022-08-19T03:19:58;20.30;85.70
49148;DHT22;41980;45.550;12.070;2022-08-19T03:26:04;20.30;85.70
49148;DHT22;41980;45.550;12.070;2022-08-19T03:32:10;20.30;85.20
49148;DHT22;41980;45.550;12.070;2022-08-19T03:38:12;20.30;85.00
49148;DHT22;41980;45.550;12.070;2022-08-19T03:44:16;20.20;84.50
49148;DHT22;41980;45.550;12.070;2022-08-19T03:50:19;20.10;84.40
49148;DHT22;41980;45.550;12.070;2022-08-19T03:56:21;20.10;84.40
49148;DHT22;41980;45.550;12.070;2022-08-19T04:02:23;20.20;84.00
49148;DHT22;41980;45.550;12.070;2022-08-19T04:08:26;20.20;83.70
49148;DHT22;41980;45.550;12.070;2022-08-19T04:14:29;20.20;83.40
49148;DHT22;41980;45.550;12.070;2022-08-19T04:20:43;20.10;83.40
49148;DHT22;41980;45.550;12.070;2022-08-19T04:26:46;20.00;83.30
49148;DHT22;41980;45.550;12.070;2022-08-19T04:32:48;20.00;83.50
49148;DHT22;41980;45.550;12.070;2022-08-19T04:38:55;20.00;83.40
49148;DHT22;41980;45.550;12.070;2022-08-19T04:44:58;20.00;83.10
49148;DHT22;41980;45.550;12.070;2022-08-19T04:51:01;19.90;82.90
49148;DHT22;41980;45.550;12.070;2022-08-19T04:57:03;20.00;83.10
49148;DHT22;41980;45.550;12.070;2022-08-19T05:03:08;20.00;82.90
49148;DHT22;41980;45.550;12.070;2022-08-19T05:09:10;20.20;82.80
49148;DHT22;41980;45.550;12.070;2022-08-19T05:15:12;20.20;82.50
49148;DHT22;41980;45.550;12.070;2022-08-19T05:21:16;20.40;82.30
49148;DHT22;41980;45.550;12.070;2022-08-19T05:27:22;20.50;82.70
49148;DHT22;41980;45.550;12.070;2022-08-19T05:33:24;20.50;82.30
49148;DHT22;41980;45.550;12.070;2022-08-19T05:39:29;20.60;81.90
49148;DHT22;41980;45.550;12.070;2022-08-19T05:45:32;20.80;81.50
49148;DHT22;41980;45.550;12.070;2022-08-19T05:51:35;21.00;81.20
49148;DHT22;41980;45.550;12.070;2022-08-19T05:57:39;21.00;81.20
49148;DHT22;41980;45.550;12.070;2022-08-19T06:03:41;21.00;81.00
49148;DHT22;41980;45.550;12.070;2022-08-19T06:09:43;21.00;81.00
49148;DHT22;41980;45.550;12.070;2022-08-19T06:15:46;22.20;81.60
49148;DHT22;41980;45.550;12.070;2022-08-19T06:21:50;24.50;77.20
49148;DHT22;41980;45.550;12.070;2022-08-19T06:27:53;25.50;74.60
49148;DHT22;41980;45.550;12.070;2022-08-19T06:33:55;24.80;74.70
49148;DHT22;41980;45.550;12.070;2022-08-19T06:39:57;24.40;74.90
49148;DHT22;41980;45.550;12.070;2022-08-19T06:45:59;23.90;75.60
49148;DHT22;41980;45.550;12.070;2022-08-19T06:52:03;23.70;76.00
49148;DHT22;41980;45.550;12.070;2022-08-19T06:58:05;23.80;74.70
49148;DHT22;41980;45.550;12.070;2022-08-19T07:04:08;24.60;75.00
49148;DHT22;41980;45.550;12.070;2022-08-19T07:10:11;26.40;73.10
49148;DHT22;41980;45.550;12.070;2022-08-19T07:16:16;27.40;67.00
49148;DHT22;41980;45.550;12.070;2022-08-19T07:22:18;27.50;68.20
49148;DHT22;41980;45.550;12.070;2022-08-19T07:28:24;26.30;68.90
49148;DHT22;41980;45.550;12.070;2022-08-19T07:34:28;25.50;70.10
49148;DHT22;41980;45.550;12.070;2022-08-19T07:40:31;24.90;70.10
49148;DHT22;41980;45.550;12.070;2022-08-19T07:46:36;24.60;70.80
49148;DHT22;41980;45.550;12.070;2022-08-19T07:52:39;24.60;71.10
49148;DHT22;41980;45.550;12.070;2022-08-19T07:58:44;24.70;71.20
49148;DHT22;41980;45.550;12.070;2022-08-19T08:04:47;24.80;71.20
49148;DHT22;41980;45.550;12.070;2022-08-19T08:10:51;24.80;71.10
49148;DHT22;41980;45.550;12.070;2022-08-19T08:16:54;24.80;70.90
49148;DHT22;41980;45.550;12.070;2022-08-19T08:22:56;24.80;71.10
49148;DHT22;41980;45.550;12.070;2022-08-19T08:29:01;25.00;70.80
49148;DHT22;41980;45.550;12.070;2022-08-19T08:35:05;25.20;70.10
49148;DHT22;41980;45.550;12.070;2022-08-19T08:47:23;24.60;70.80
49148;DHT22;41980;45.550;12.070;2022-08-19T08:53:26;24.30;71.70
49148;DHT22;41980;45.550;12.070;2022-08-19T08:59:33;24.60;71.70
49148;DHT22;41980;45.550;12.070;2022-08-19T09:18:04;24.90;71.00
49148;DHT22;41980;45.550;12.070;2022-08-19T09:24:06;25.00;71.00
49148;DHT22;41980;45.550;12.070;2022-08-19T09:30:12;25.20;70.70
49148;DHT22;41980;45.550;12.070;2022-08-19T09:36:16;25.40;70.50
49148;DHT22;41980;45.550;12.070;2022-08-19T09:42:20;25.60;70.30
49148;DHT22;41980;45.550;12.070;2022-08-19T09:48:22;25.70;70.00
49148;DHT22;41980;45.550;12.070;2022-08-19T09:54:24;25.90;69.90
49148;DHT22;41980;45.550;12.070;2022-08-19T10:00:26;26.00;69.40
49148;DHT22;41980;45.550;12.070;2022-08-19T10:06:29;26.40;69.30
49148;DHT22;41980;45.550;12.070;2022-08-19T10:12:34;26.80;68.50
49148;DHT22;41980;45.550;12.070;2022-08-19T10:18:37;27.10;68.40
49148;DHT22;41980;45.550;12.070;2022-08-19T10:24:39;27.50;67.70
49148;DHT22;41980;45.550;12.070;2022-08-19T10:30:41;27.50;67.20
49148;DHT22;41980;45.550;12.070;2022-08-19T10:36:43;27.60;66.50
49148;DHT22;41980;45.550;12.070;2022-08-19T10:42:45;27.90;65.80
49148;DHT22;41980;45.550;12.070;2022-08-19T10:48:47;28.00;64.70
49148;DHT22;41980;45.550;12.070;2022-08-19T10:54:51;28.00;65.10
49148;DHT22;41980;45.550;12.070;2022-08-19T11:00:57;27.70;63.40
49148;DHT22;41980;45.550;12.070;2022-08-19T11:07:00;27.90;64.50
49148;DHT22;41980;45.550;12.070;2022-08-19T11:13:02;28.00;63.50
49148;DHT22;41980;45.550;12.070;2022-08-19T11:19:06;28.00;62.80
49148;DHT22;41980;45.550;12.070;2022-08-19T11:25:10;28.10;63.20
49148;DHT22;41980;45.550;12.070;2022-08-19T11:31:15;28.40;63.50
49148;DHT22;41980;45.550;12.070;2022-08-19T11:37:17;28.50;62.80
49148;DHT22;41980;45.550;12.070;2022-08-19T11:43:19;28.30;62.10
49148;DHT22;41980;45.550;12.070;2022-08-19T11:49:22;28.00;62.50
49148;DHT22;41980;45.550;12.070;2022-08-19T11:55:24;27.80;63.10
49148;DHT22;41980;45.550;12.070;2022-08-19T12:01:26;27.70;63.10
49148;DHT22;41980;45.550;12.070;2022-08-19T12:07:29;27.50;63.80
49148;DHT22;41980;45.550;12.070;2022-08-19T12:13:35;27.60;64.20
49148;DHT22;41980;45.550;12.070;2022-08-19T12:19:37;27.50;64.20
49148;DHT22;41980;45.550;12.070;2022-08-19T12:25:44;27.60;64.10
49148;DHT22;41980;45.550;12.070;2022-08-19T12:31:53;27.50;64.40
49148;DHT22;41980;45.550;12.070;2022-08-19T12:37:54;27.50;64.60
49148;DHT22;41980;45.550;12.070;2022-08-19T12:43:57;27.60;64.30
49148;DHT22;41980;45.550;12.070;2022-08-19T12:50:00;27.50;64.30
49148;DHT22;41980;45.550;12.070;2022-08-19T12:56:02;27.50;64.50
49148;DHT22;41980;45.550;12.070;2022-08-19T13:02:05;27.60;64.60
49148;DHT22;41980;45.550;12.070;2022-08-19T13:08:08;27.90;64.40
49148;DHT22;41980;45.550;12.070;2022-08-19T13:14:10;28.00;64.20
49148;DHT22;41980;45.550;12.070;2022-08-19T13:20:12;28.10;63.90
49148;DHT22;41980;45.550;12.070;2022-08-19T13:26:15;28.10;63.60
49148;DHT22;41980;45.550;12.070;2022-08-19T13:32:17;28.30;63.30
49148;DHT22;41980;45.550;12.070;2022-08-19T13:38:23;28.20;62.80
49148;DHT22;41980;45.550;12.070;2022-08-19T13:44:26;28.30;63.10
49148;DHT22;41980;45.550;12.070;2022-08-19T13:50:32;28.30;62.80
49148;DHT22;41980;45.550;12.070;2022-08-19T13:56:35;28.30;62.70
49148;DHT22;41980;45.550;12.070;2022-08-19T14:02:41;28.20;62.80
49148;DHT22;41980;45.550;12.070;2022-08-19T14:08:43;28.10;62.70
49148;DHT22;41980;45.550;12.070;2022-08-19T14:14:47;28.00;62.70
49148;DHT22;41980;45.550;12.070;2022-08-19T14:20:49;28.10;62.80
49148;DHT22;41980;45.550;12.070;2022-08-19T14:26:51;28.10;62.10
49148;DHT22;41980;45.550;12.070;2022-08-19T14:32:55;28.30;62.30
49148;DHT22;41980;45.550;12.070;2022-08-19T14:38:57;28.40;61.30
49148;DHT22;41980;45.550;12.070;2022-08-19T14:45:02;28.40;60.40
49148;DHT22;41980;45.550;12.070;2022-08-19T14:51:08;28.20;60.10
49148;DHT22;41980;45.550;12.070;2022-08-19T14:57:15;28.00;59.00
49148;DHT22;41980;45.550;12.070;2022-08-19T15:03:17;27.90;60.80
49148;DHT22;41980;45.550;12.070;2022-08-19T15:09:19;27.80;60.60
49148;DHT22;41980;45.550;12.070;2022-08-19T15:15:21;27.70;60.20
49148;DHT22;41980;45.550;12.070;2022-08-19T15:21:24;27.60;60.30
49148;DHT22;41980;45.550;12.070;2022-08-19T15:27:27;27.50;60.50
49148;DHT22;41980;45.550;12.070;2022-08-19T15:33:31;27.50;60.20
49148;DHT22;41980;45.550;12.070;2022-08-19T15:39:36;27.60;60.60
49148;DHT22;41980;45.550;12.070;2022-08-19T15:45:38;27.50;60.80
49148;DHT22;41980;45.550;12.070;2022-08-19T15:51:45;27.40;60.70
49148;DHT22;41980;45.550;12.070;2022-08-19T15:57:48;27.30;61.20
49148;DHT22;41980;45.550;12.070;2022-08-19T16:03:55;27.10;61.30
49148;DHT22;41980;45.550;12.070;2022-08-19T16:10:02;26.80;61.70
49148;DHT22;41980;45.550;12.070;2022-08-19T16:16:06;26.60;61.60
49148;DHT22;41980;45.550;12.070;2022-08-19T16:22:08;26.50;62.10
49148;DHT22;41980;45.550;12.070;2022-08-19T16:28:11;26.40;62.30
49148;DHT22;41980;45.550;12.070;2022-08-19T16:34:13;26.30;62.50
49148;DHT22;41980;45.550;12.070;2022-08-19T16:40:15;26.10;62.40
49148;DHT22;41980;45.550;12.070;2022-08-19T16:46:19;26.00;62.70
49148;DHT22;41980;45.550;12.070;2022-08-19T16:52:22;26.00;62.70
49148;DHT22;41980;45.550;12.070;2022-08-19T16:58:28;25.80;62.80
49148;DHT22;41980;45.550;12.070;2022-08-19T17:04:35;25.70;63.00
49148;DHT22;41980;45.550;12.070;2022-08-19T17:10:38;25.60;63.10
49148;DHT22;41980;45.550;12.070;2022-08-19T17:16:41;25.50;63.30
49148;DHT22;41980;45.550;12.070;2022-08-19T17:22:46;25.40;63.60
49148;DHT22;41980;45.550;12.070;2022-08-19T17:28:52;25.30;63.70
49148;DHT22;41980;45.550;12.070;2022-08-19T17:34:55;25.20;64.00
49148;DHT22;41980;45.550;12.070;2022-08-19T17:40:57;25.00;64.30
49148;DHT22;41980;45.550;12.070;2022-08-19T17:47:06;24.90;64.70
49148;DHT22;41980;45.550;12.070;2022-08-19T17:53:08;24.70;64.70
49148;DHT22;41980;45.550;12.070;2022-08-19T17:59:12;24.50;65.10
49148;DHT22;41980;45.550;12.070;2022-08-19T18:05:17;24.50;65.70
49148;DHT22;41980;45.550;12.070;2022-08-19T18:11:21;24.30;65.90
49148;DHT22;41980;45.550;12.070;2022-08-19T18:17:24;24.10;66.50
49148;DHT22;41980;45.550;12.070;2022-08-19T18:23:26;24.00;66.50
49148;DHT22;41980;45.550;12.070;2022-08-19T18:29:28;23.80;66.90
49148;DHT22;41980;45.550;12.070;2022-08-19T18:35:34;23.70;67.40
49148;DHT22;41980;45.550;12.070;2022-08-19T18:41:39;23.50;67.20
49148;DHT22;41980;45.550;12.070;2022-08-19T18:47:45;23.40;67.60
49148;DHT22;41980;45.550;12.070;2022-08-19T18:53:50;23.40;67.40
49148;DHT22;41980;45.550;12.070;2022-08-19T18:59:54;23.30;67.60
49148;DHT22;41980;45.550;12.070;2022-08-19T19:05:57;23.20;67.70
49148;DHT22;41980;45.550;12.070;2022-08-19T19:12:03;23.10;67.80
49148;DHT22;41980;45.550;12.070;2022-08-19T19:18:06;23.10;68.00
49148;DHT22;41980;45.550;12.070;2022-08-19T19:24:08;23.00;68.30
49148;DHT22;41980;45.550;12.070;2022-08-19T19:30:12;23.00;68.50
49148;DHT22;41980;45.550;12.070;2022-08-19T19:36:20;22.90;68.60
49148;DHT22;41980;45.550;12.070;2022-08-19T19:42:24;22.80;68.70
49148;DHT22;41980;45.550;12.070;2022-08-19T19:48:27;22.70;68.70
49148;DHT22;41980;45.550;12.070;2022-08-19T19:54:30;22.70;68.80
49148;DHT22;41980;45.550;12.070;2022-08-19T20:00:33;22.60;68.90
49148;DHT22;41980;45.550;12.070;2022-08-19T20:06:35;22.50;69.20
49148;DHT22;41980;45.550;12.070;2022-08-19T20:12:38;22.50;69.70
49148;DHT22;41980;45.550;12.070;2022-08-19T20:18:41;22.40;70.30
49148;DHT22;41980;45.550;12.070;2022-08-19T20:24:45;22.30;70.50
49148;DHT22;41980;45.550;12.070;2022-08-19T20:30:49;22.20;70.70
49148;DHT22;41980;45.550;12.070;2022-08-19T20:36:51;22.20;70.80
49148;DHT22;41980;45.550;12.070;2022-08-19T20:42:53;22.00;71.10
49148;DHT22;41980;45.550;12.070;2022-08-19T20:48:58;22.00;71.60
49148;DHT22;41980;45.550;12.070;2022-08-19T20:55:04;22.00;71.80
49148;DHT22;41980;45.550;12.070;2022-08-19T21:01:06;21.90;71.90
49148;DHT22;41980;45.550;12.070;2022-08-19T21:07:11;21.90;72.20
49148;DHT22;41980;45.550;12.070;2022-08-19T21:13:15;21.80;72.40
49148;DHT22;41980;45.550;12.070;2022-08-19T21:19:24;21.70;72.60
49148;DHT22;41980;45.550;12.070;2022-08-19T21:25:32;21.70;72.70
49148;DHT22;41980;45.550;12.070;2022-08-19T21:31:54;21.60;72.70
49148;DHT22;41980;45.550;12.070;2022-08-19T21:37:58;21.70;72.70
49148;DHT22;41980;45.550;12.070;2022-08-19T21:44:01;21.70;72.80
49148;DHT22;41980;45.550;12.070;2022-08-19T21:50:24;21.70;73.00
49148;DHT22;41980;45.550;12.070;2022-08-19T21:56:27;21.70;72.70
49148;DHT22;41980;45.550;12.070;2022-08-19T22:02:31;21.60;73.50
49148;DHT22;41980;45.550;12.070;2022-08-19T22:08:41;21.60;73.00
49148;DHT22;41980;45.550;12.070;2022-08-19T22:14:45;21.60;72.60
49148;DHT22;41980;45.550;12.070;2022-08-19T22:20:49;21.50;72.70
49148;DHT22;41980;45.550;12.070;2022-08-19T22:26:52;21.50;72.50
49148;DHT22;41980;45.550;12.070;2022-08-19T22:32:56;21.50;72.70
49148;DHT22;41980;45.550;12.070;2022-08-19T22:39:03;21.50;72.90
49148;DHT22;41980;45.550;12.070;2022-08-19T22:45:08;21.40;73.00
49148;DHT22;41980;45.550;12.070;2022-08-19T22:51:13;21.40;73.10
49148;DHT22;41980;45.550;12.070;2022-08-19T22:57:23;21.40;73.20
49148;DHT22;41980;45.550;12.070;2022-08-19T23:03:25;21.30;73.30
49148;DHT22;41980;45.550;12.070;2022-08-19T23:09:28;21.30;73.50
49148;DHT22;41980;45.550;12.070;2022-08-19T23:15:31;21.30;73.60
49148;DHT22;41980;45.550;12.070;2022-08-19T23:21:34;21.20;73.60
49148;DHT22;41980;45.550;12.070;2022-08-19T23:27:37;21.20;73.80
49148;DHT22;41980;45.550;12.070;2022-08-19T23:33:43;21.10;74.00
49148;DHT22;41980;45.550;12.070;2022-08-19T23:39:45;21.10;74.10
49148;DHT22;41980;45.550;12.070;2022-08-19T23:45:47;21.00;74.00
49148;DHT22;41980;45.550;12.070;2022-08-19T23:51:50;21.00;74.00
49148;DHT22;41980;45.550;12.070;2022-08-19T23:57:52;20.90;74.10
